createdAt,value
2023-05-16T00:00:14.882Z,0
2023-05-16T00:00:40.772Z,0
2023-05-16T00:01:11.528Z,0
2023-05-16T00:01:42.774Z,0
2023-05-16T00:02:13.702Z,0
2023-05-16T00:02:44.671Z,0
2023-05-16T00:03:16.696Z,0
2023-05-16T00:03:46.838Z,0
2023-05-16T00:04:17.897Z,0
2023-05-16T00:04:48.534Z,0
2023-05-16T00:05:19.641Z,0
2023-05-16T00:05:50.762Z,0
2023-05-16T00:06:21.796Z,.32
2023-05-16T00:06:52.549Z,.64
2023-05-16T00:07:23.549Z,0
2023-05-16T00:07:54.443Z,0
2023-05-16T00:08:26.484Z,0
2023-05-16T00:08:56.610Z,0
2023-05-16T00:09:27.501Z,0
2023-05-16T00:09:58.335Z,0
2023-05-16T00:10:29.811Z,0
2023-05-16T00:11:00.826Z,.32
2023-05-16T00:11:31.561Z,0
2023-05-16T00:12:02.652Z,0
2023-05-16T00:12:33.684Z,0
2023-05-16T00:13:04.636Z,0
2023-05-16T00:13:36.761Z,0
2023-05-16T00:14:06.494Z,0
2023-05-16T00:14:37.574Z,0
2023-05-16T00:15:11.379Z,0
2023-05-16T00:15:39.539Z,0
2023-05-16T00:16:10.659Z,0
2023-05-16T00:16:41.508Z,0
2023-05-16T00:17:12.893Z,0
2023-05-16T00:17:44.091Z,0
2023-05-16T00:18:14.609Z,0
2023-05-16T00:18:46.692Z,0
2023-05-16T00:19:16.871Z,0
2023-05-16T00:19:47.713Z,0
2023-05-16T00:20:18.485Z,0
2023-05-16T00:20:49.562Z,0
2023-05-16T00:21:22.261Z,0
2023-05-16T00:21:51.721Z,0
2023-05-16T00:22:22.855Z,0
2023-05-16T00:22:53.548Z,0
2023-05-16T00:23:24.400Z,0
2023-05-16T00:23:56.548Z,0
2023-05-16T00:24:27.102Z,0
2023-05-16T00:24:57.799Z,0
2023-05-16T00:25:28.456Z,0
2023-05-16T00:25:59.742Z,0
2023-05-16T00:26:30.779Z,0
2023-05-16T00:27:01.774Z,0
2023-05-16T00:27:32.725Z,0
2023-05-16T00:28:03.684Z,0
2023-05-16T00:28:34.601Z,0
2023-05-16T00:29:06.694Z,0
2023-05-16T00:29:36.738Z,0
2023-05-16T00:30:10.667Z,0
2023-05-16T00:30:38.658Z,0
2023-05-16T00:31:09.825Z,0
2023-05-16T00:31:40.802Z,0
2023-05-16T00:32:11.667Z,0
2023-05-16T00:32:42.687Z,0
2023-05-16T00:33:13.467Z,0
2023-05-16T00:33:44.613Z,0
2023-05-16T00:34:16.746Z,0
2023-05-16T00:34:46.314Z,0
2023-05-16T00:35:17.520Z,0
2023-05-16T00:35:48.580Z,0
2023-05-16T00:36:20.995Z,0
2023-05-16T00:36:50.510Z,0
2023-05-16T00:37:21.619Z,0
2023-05-16T00:37:52.676Z,1.12
2023-05-16T00:38:23.614Z,.32
2023-05-16T00:38:54.545Z,0
2023-05-16T00:39:26.504Z,0
2023-05-16T00:39:56.486Z,0
2023-05-16T00:41:56.194Z,0
2023-05-16T00:42:32.462Z,0
2023-05-16T00:43:03.702Z,0
2023-05-16T00:43:34.615Z,0
2023-05-16T00:44:05.649Z,0
2023-05-16T00:44:37.511Z,0
2023-05-16T00:45:10.432Z,0
2023-05-16T00:45:38.081Z,0
2023-05-16T00:46:08.872Z,.32
2023-05-16T00:46:40.084Z,.32
2023-05-16T00:47:10.749Z,0
2023-05-16T00:47:41.671Z,0
2023-05-16T00:48:12.851Z,0
2023-05-16T00:48:43.645Z,0
2023-05-16T00:49:15.258Z,0
2023-05-16T00:49:46.586Z,0
2023-05-16T00:50:16.909Z,0
2023-05-16T00:50:47.959Z,0
2023-05-16T00:51:19.043Z,0
2023-05-16T00:51:50.527Z,0
2023-05-16T00:52:21.175Z,0
2023-05-16T00:52:52.154Z,0
2023-05-16T00:53:23.116Z,0
2023-05-16T00:53:53.931Z,0
2023-05-16T00:54:24.960Z,0
2023-05-16T00:54:57.059Z,0
2023-05-16T00:55:27.153Z,0
2023-05-16T00:55:57.661Z,0
2023-05-16T00:56:29.081Z,0
2023-05-16T00:57:00.173Z,0
2023-05-16T00:57:30.937Z,0
2023-05-16T00:58:01.651Z,.32
2023-05-16T00:58:32.555Z,0
2023-05-16T00:59:04.846Z,0
2023-05-16T00:59:34.911Z,0
2023-05-16T01:00:10.046Z,0
2023-05-16T01:00:37.007Z,0
2023-05-16T01:01:08.719Z,0
2023-05-16T01:01:39.405Z,0
2023-05-16T01:02:10.238Z,0
2023-05-16T01:02:40.755Z,0
2023-05-16T01:03:11.780Z,0
2023-05-16T01:03:42.847Z,0
2023-05-16T01:04:13.624Z,0
2023-05-16T01:04:44.628Z,.64
2023-05-16T01:05:16.693Z,0
2023-05-16T01:05:48.284Z,0
2023-05-16T01:06:18.450Z,0
2023-05-16T01:06:49.310Z,0
2023-05-16T01:07:20.809Z,0
2023-05-16T01:07:51.370Z,0
2023-05-16T01:08:22.548Z,0
2023-05-16T01:08:53.501Z,0
2023-05-16T01:09:23.756Z,0
2023-05-16T01:09:54.860Z,0
2023-05-16T01:10:27.101Z,0
2023-05-16T01:10:56.957Z,0
2023-05-16T01:11:27.616Z,0
2023-05-16T01:11:58.816Z,0
2023-05-16T01:12:30.535Z,0
2023-05-16T01:13:00.889Z,0
2023-05-16T01:13:31.944Z,0
2023-05-16T01:14:03.794Z,0
2023-05-16T01:14:34.013Z,0
2023-05-16T01:15:07.992Z,0
2023-05-16T01:15:36.916Z,0
2023-05-16T01:16:07.432Z,0
2023-05-16T01:16:38.195Z,0
2023-05-16T01:17:09.126Z,0
2023-05-16T01:17:40.182Z,0
2023-05-16T01:18:11.138Z,0
2023-05-16T01:18:42.563Z,0
2023-05-16T01:19:13.394Z,0
2023-05-16T01:19:43.956Z,0
2023-05-16T01:20:14.927Z,0
2023-05-16T01:20:46.734Z,0
2023-05-16T01:21:17.110Z,0
2023-05-16T01:21:47.948Z,0
2023-05-16T01:22:18.864Z,0
2023-05-16T01:22:50.272Z,0
2023-05-16T01:23:21.061Z,.64
2023-05-16T01:23:52.605Z,.32
2023-05-16T01:24:22.908Z,0
2023-05-16T01:24:53.878Z,0
2023-05-16T01:25:24.962Z,0
2023-05-16T01:25:56.881Z,1.12
2023-05-16T01:26:26.819Z,2.09
2023-05-16T01:26:57.693Z,3.54
2023-05-16T01:27:29.051Z,1.44
2023-05-16T01:28:01.082Z,0
2023-05-16T01:28:30.752Z,0
2023-05-16T01:29:01.938Z,0
2023-05-16T01:29:34.863Z,1.12
2023-05-16T01:30:06.998Z,.32
2023-05-16T01:30:35.240Z,0
2023-05-16T01:31:07.102Z,0
2023-05-16T01:31:37.221Z,0
2023-05-16T01:32:08.213Z,.64
2023-05-16T01:32:38.836Z,0
2023-05-16T01:33:10.188Z,0
2023-05-16T01:33:41.091Z,.32
2023-05-16T01:34:12.078Z,0
2023-05-16T01:34:42.519Z,0
2023-05-16T01:35:13.734Z,0
2023-05-16T01:35:45.707Z,0
2023-05-16T01:36:16.960Z,0
2023-05-16T01:36:46.956Z,1.44
2023-05-16T01:37:17.946Z,1.12
2023-05-16T01:37:49.122Z,0
2023-05-16T01:38:19.832Z,0
2023-05-16T01:38:50.735Z,.32
2023-05-16T01:39:22.221Z,1.44
2023-05-16T01:39:53.540Z,0
2023-05-16T01:40:24.017Z,0
2023-05-16T01:40:54.508Z,0
2023-05-16T01:41:26.896Z,0
2023-05-16T01:41:56.865Z,0
2023-05-16T01:42:27.958Z,0
2023-05-16T01:42:58.874Z,0
2023-05-16T01:43:30.014Z,0
2023-05-16T01:44:00.902Z,0
2023-05-16T01:44:32.216Z,.64
2023-05-16T01:45:06.162Z,2.89
2023-05-16T01:45:34.051Z,.32
2023-05-16T01:46:04.775Z,0
2023-05-16T01:46:37.783Z,0
2023-05-16T01:47:07.485Z,.32
2023-05-16T01:47:38.837Z,1.12
2023-05-16T01:48:10.929Z,0
2023-05-16T01:48:40.358Z,0
2023-05-16T01:49:12.638Z,0
2023-05-16T01:49:41.860Z,0
2023-05-16T01:50:13.318Z,0
2023-05-16T01:50:44.077Z,0
2023-05-16T01:51:15.641Z,0
2023-05-16T01:51:46.769Z,0
2023-05-16T01:52:16.982Z,.32
2023-05-16T01:52:48.473Z,1.12
2023-05-16T01:53:19.264Z,0
2023-05-16T01:53:50.402Z,0
2023-05-16T01:54:21.796Z,0
2023-05-16T01:54:52.262Z,0
2023-05-16T01:55:23.694Z,0
2023-05-16T01:55:54.562Z,0
2023-05-16T01:56:24.908Z,1.44
2023-05-16T01:56:56.950Z,2.57
2023-05-16T01:57:27.038Z,1.44
2023-05-16T01:57:58.052Z,0
2023-05-16T01:58:29.535Z,0
2023-05-16T01:59:00.237Z,0
2023-05-16T01:59:31.385Z,0
2023-05-16T02:00:05.059Z,0
2023-05-16T02:00:33.236Z,0
2023-05-16T02:01:03.979Z,0
2023-05-16T02:01:34.976Z,0
2023-05-16T02:02:06.936Z,0
2023-05-16T02:02:36.664Z,.64
2023-05-16T02:03:08.212Z,.32
2023-05-16T02:03:39.325Z,1.12
2023-05-16T02:04:10.569Z,3.54
2023-05-16T02:04:41.422Z,4.02
2023-05-16T02:05:11.682Z,1.12
2023-05-16T02:05:44.035Z,1.44
2023-05-16T02:06:13.989Z,1.44
2023-05-16T02:06:44.862Z,1.12
2023-05-16T02:07:17.205Z,0
2023-05-16T02:07:47.189Z,0
2023-05-16T02:08:17.544Z,0
2023-05-16T02:08:49.117Z,0
2023-05-16T02:09:19.578Z,0
2023-05-16T02:09:50.953Z,0
2023-05-16T02:10:21.580Z,0
2023-05-16T02:10:53.444Z,.32
2023-05-16T02:11:24.100Z,1.44
2023-05-16T02:11:55.257Z,.32
2023-05-16T02:12:26.947Z,0
2023-05-16T02:12:57.071Z,0
2023-05-16T02:13:27.698Z,0
2023-05-16T02:13:58.974Z,0
2023-05-16T02:14:30.041Z,0
2023-05-16T02:15:04.472Z,0
2023-05-16T02:15:32.012Z,0
2023-05-16T02:16:03.251Z,1.12
2023-05-16T02:16:33.732Z,0
2023-05-16T02:17:05.132Z,0
2023-05-16T02:17:37.777Z,0
2023-05-16T02:18:06.772Z,0
2023-05-16T02:18:38.142Z,0
2023-05-16T02:19:09.604Z,0
2023-05-16T02:19:39.874Z,0
2023-05-16T02:20:10.896Z,0
2023-05-16T02:20:42.294Z,0
2023-05-16T02:21:12.966Z,0
2023-05-16T02:21:43.955Z,0
2023-05-16T02:22:15.164Z,0
2023-05-16T02:22:46.856Z,0
2023-05-16T02:23:16.894Z,0
2023-05-16T02:23:48.220Z,.32
2023-05-16T02:24:19.466Z,0
2023-05-16T02:24:49.973Z,0
2023-05-16T02:25:21.138Z,0
2023-05-16T02:25:52.360Z,0
2023-05-16T02:26:23.108Z,0
2023-05-16T02:26:54.213Z,0
2023-05-16T02:27:25.225Z,0
2023-05-16T02:27:56.960Z,0
2023-05-16T02:28:26.987Z,0
2023-05-16T02:28:58.004Z,0
2023-05-16T02:29:28.964Z,0
2023-05-16T02:29:59.787Z,.32
2023-05-16T02:30:33.960Z,0
2023-05-16T02:31:02.074Z,0
2023-05-16T02:31:32.944Z,0
2023-05-16T02:32:03.576Z,0
2023-05-16T02:32:35.026Z,0
2023-05-16T02:33:07.265Z,0
2023-05-16T02:33:37.005Z,1.77
2023-05-16T02:34:08.024Z,.64
2023-05-16T02:34:39.241Z,0
2023-05-16T02:35:10.043Z,0
2023-05-16T02:35:41.316Z,0
2023-05-16T02:36:12.001Z,0
2023-05-16T02:36:43.452Z,0
2023-05-16T02:37:14.464Z,0
2023-05-16T02:37:45.024Z,0
2023-05-16T02:38:16.870Z,0
2023-05-16T02:38:46.788Z,0
2023-05-16T02:39:17.724Z,0
2023-05-16T02:39:48.697Z,0
2023-05-16T02:40:19.948Z,0
2023-05-16T02:40:51.517Z,0
2023-05-16T02:41:21.834Z,0
2023-05-16T02:41:53.066Z,0
2023-05-16T02:42:24.226Z,.32
2023-05-16T02:42:54.820Z,1.77
2023-05-16T02:43:27.350Z,0
2023-05-16T02:43:57.054Z,0
2023-05-16T02:44:28.033Z,0
2023-05-16T02:44:58.767Z,0
2023-05-16T02:45:33.260Z,0
2023-05-16T02:46:00.907Z,0
2023-05-16T02:46:32.268Z,1.12
2023-05-16T02:47:02.758Z,0
2023-05-16T02:47:34.091Z,0
2023-05-16T02:48:04.580Z,.64
2023-05-16T02:48:36.924Z,0
2023-05-16T02:49:06.764Z,0
2023-05-16T02:49:37.873Z,0
2023-05-16T02:50:09.143Z,0
2023-05-16T02:50:39.876Z,0
2023-05-16T02:51:11.361Z,0
2023-05-16T02:51:41.925Z,0
2023-05-16T02:52:13.863Z,0
2023-05-16T02:52:44.133Z,0
2023-05-16T02:53:15.054Z,0
2023-05-16T02:53:47.092Z,0
2023-05-16T02:54:16.690Z,0
2023-05-16T02:54:59.865Z,0
2023-05-16T02:55:22.176Z,0
2023-05-16T02:55:49.904Z,0
2023-05-16T02:56:21.356Z,0
2023-05-16T02:56:51.807Z,0
2023-05-16T02:57:22.863Z,0
2023-05-16T02:57:53.866Z,0
2023-05-16T02:58:24.670Z,0
2023-05-16T02:58:56.934Z,1.44
2023-05-16T02:59:26.829Z,.32
2023-05-16T02:59:57.978Z,0
2023-05-16T03:00:32.116Z,0
2023-05-16T03:01:01.220Z,3.54
2023-05-16T03:01:30.995Z,0
2023-05-16T03:02:01.904Z,1.12
2023-05-16T03:02:33.558Z,2.89
2023-05-16T03:03:03.986Z,0
2023-05-16T03:03:35.443Z,0
2023-05-16T03:04:08.040Z,0
2023-05-16T03:04:36.937Z,1.44
2023-05-16T03:05:08.184Z,0
2023-05-16T03:05:39.579Z,0
2023-05-16T03:06:10.381Z,0
2023-05-16T03:06:41.082Z,0
2023-05-16T03:07:11.653Z,0
2023-05-16T03:07:42.961Z,0
2023-05-16T03:08:13.690Z,0
2023-05-16T03:08:44.860Z,1.12
2023-05-16T03:09:16.609Z,.64
2023-05-16T03:09:46.791Z,1.77
2023-05-16T03:10:18.047Z,1.77
2023-05-16T03:10:49.002Z,1.44
2023-05-16T03:11:20.260Z,1.12
2023-05-16T03:11:51.174Z,0
2023-05-16T03:12:22.304Z,0
2023-05-16T03:12:52.985Z,.32
2023-05-16T03:13:24.385Z,1.44
2023-05-16T03:13:54.952Z,1.12
2023-05-16T03:14:26.865Z,0
2023-05-16T03:14:57.096Z,.32
2023-05-16T03:15:31.547Z,0
2023-05-16T03:15:59.405Z,0
2023-05-16T03:16:31.191Z,0
2023-05-16T03:17:01.582Z,1.44
2023-05-16T03:17:31.663Z,1.12
2023-05-16T03:18:03.062Z,.32
2023-05-16T03:18:34.044Z,.32
2023-05-16T03:19:04.965Z,.32
2023-05-16T03:19:37.497Z,0
2023-05-16T03:20:06.871Z,0
2023-05-16T03:20:38.416Z,0
2023-05-16T03:21:09.551Z,0
2023-05-16T03:21:39.857Z,0
2023-05-16T03:22:11.035Z,0
2023-05-16T03:22:42.057Z,0
2023-05-16T03:23:12.836Z,0
2023-05-16T03:23:44.199Z,0
2023-05-16T03:24:14.815Z,0
2023-05-16T03:24:47.220Z,1.44
2023-05-16T03:25:17.059Z,2.09
2023-05-16T03:25:48.558Z,0
2023-05-16T03:26:18.749Z,0
2023-05-16T03:26:50.424Z,0
2023-05-16T03:27:20.763Z,0
2023-05-16T03:27:51.658Z,0
2023-05-16T03:28:23.138Z,.32
2023-05-16T03:28:53.986Z,1.12
2023-05-16T03:29:25.078Z,0
2023-05-16T03:29:57.239Z,0
2023-05-16T03:30:30.265Z,0
2023-05-16T03:30:58.122Z,0
2023-05-16T03:31:29.274Z,0
2023-05-16T03:31:59.595Z,0
2023-05-16T03:32:30.746Z,.32
2023-05-16T03:33:01.915Z,.64
2023-05-16T03:33:33.089Z,.32
2023-05-16T03:34:03.829Z,0
2023-05-16T03:34:35.194Z,0
2023-05-16T03:35:07.146Z,0
2023-05-16T03:35:37.126Z,1.12
2023-05-16T03:36:07.585Z,2.09
2023-05-16T03:36:38.709Z,1.44
2023-05-16T03:37:09.837Z,0
2023-05-16T03:37:41.392Z,2.09
2023-05-16T03:38:11.893Z,1.77
2023-05-16T03:38:43.063Z,4.02
2023-05-16T03:39:14.222Z,3.54
2023-05-16T03:39:44.709Z,2.57
2023-05-16T03:40:17.017Z,3.21
2023-05-16T03:40:46.661Z,4.66
2023-05-16T03:41:17.986Z,1.77
2023-05-16T03:41:49.139Z,1.44
2023-05-16T03:42:20.236Z,2.09
2023-05-16T03:42:51.539Z,4.34
2023-05-16T03:43:22.228Z,4.66
2023-05-16T03:43:53.057Z,3.54
2023-05-16T03:44:23.785Z,6.43
2023-05-16T03:44:54.830Z,8.20
2023-05-16T03:45:30.557Z,6.43
2023-05-16T03:45:57.418Z,7.56
2023-05-16T03:46:27.566Z,3.54
2023-05-16T03:46:58.666Z,2.89
2023-05-16T03:47:29.734Z,2.09
2023-05-16T03:48:01.003Z,4.98
2023-05-16T03:48:31.920Z,4.66
2023-05-16T03:49:03.076Z,4.66
2023-05-16T03:49:34.226Z,6.43
2023-05-16T03:50:05.350Z,2.89
2023-05-16T03:50:37.661Z,2.89
2023-05-16T03:51:06.898Z,3.54
2023-05-16T03:51:38.237Z,1.77
2023-05-16T03:52:08.771Z,.32
2023-05-16T03:52:39.900Z,7.24
2023-05-16T03:53:10.637Z,8.69
2023-05-16T03:53:42.015Z,9.01
2023-05-16T03:54:12.845Z,5.47
2023-05-16T03:54:43.784Z,8.20
2023-05-16T03:55:15.097Z,9.33
2023-05-16T03:55:48.775Z,6.43
2023-05-16T03:56:16.586Z,5.79
2023-05-16T03:56:48.184Z,4.02
2023-05-16T03:57:18.654Z,4.98
2023-05-16T03:57:49.610Z,4.66
2023-05-16T03:58:21.113Z,8.69
2023-05-16T03:58:52.149Z,6.43
2023-05-16T03:59:24.053Z,7.24
2023-05-16T03:59:54.011Z,6.11
2023-05-16T04:00:28.076Z,10.13
2023-05-16T04:00:57.395Z,5.47
2023-05-16T04:01:27.244Z,6.43
2023-05-16T04:01:58.349Z,6.11
2023-05-16T04:02:28.967Z,7.24
2023-05-16T04:03:00.172Z,5.47
2023-05-16T04:03:30.859Z,3.54
2023-05-16T04:04:03.433Z,3.54
2023-05-16T04:04:33.733Z,4.02
2023-05-16T04:05:04.502Z,3.54
2023-05-16T04:05:36.463Z,4.66
2023-05-16T04:06:07.351Z,4.66
2023-05-16T04:06:37.161Z,1.77
2023-05-16T04:07:08.126Z,4.02
2023-05-16T04:07:39.280Z,4.02
2023-05-16T04:08:10.549Z,7.24
2023-05-16T04:08:41.236Z,7.88
2023-05-16T04:09:12.050Z,9.33
2023-05-16T04:09:43.080Z,6.11
2023-05-16T04:10:14.258Z,4.34
2023-05-16T04:10:45.045Z,4.66
2023-05-16T04:11:17.078Z,5.47
2023-05-16T04:11:47.040Z,5.79
2023-05-16T04:12:18.221Z,3.54
2023-05-16T04:12:49.319Z,3.21
2023-05-16T04:13:20.564Z,2.89
2023-05-16T04:13:52.158Z,6.11
2023-05-16T04:14:22.289Z,5.47
2023-05-16T04:14:53.209Z,7.24
2023-05-16T04:15:27.414Z,5.79
2023-05-16T04:15:55.051Z,3.54
2023-05-16T04:16:27.536Z,3.21
2023-05-16T04:16:57.258Z,4.66
2023-05-16T04:17:28.026Z,7.88
2023-05-16T04:17:59.196Z,5.47
2023-05-16T04:18:30.904Z,9.65
2023-05-16T04:19:01.311Z,7.24
2023-05-16T04:19:32.279Z,6.43
2023-05-16T04:20:04.087Z,9.33
2023-05-16T04:20:34.829Z,11.58
2023-05-16T04:21:05.177Z,6.43
2023-05-16T04:21:37.205Z,7.88
2023-05-16T04:22:07.512Z,9.33
2023-05-16T04:22:38.234Z,7.88
2023-05-16T04:23:09.402Z,7.24
2023-05-16T04:23:40.006Z,5.47
2023-05-16T04:24:11.192Z,7.88
2023-05-16T04:24:42.852Z,9.33
2023-05-16T04:25:17.132Z,10.46
2023-05-16T04:25:44.434Z,10.46
2023-05-16T04:26:15.298Z,7.56
2023-05-16T04:26:47.289Z,6.43
2023-05-16T04:27:17.360Z,7.56
2023-05-16T04:27:48.134Z,3.54
2023-05-16T04:28:19.238Z,7.88
2023-05-16T04:28:50.148Z,12.23
2023-05-16T04:29:21.246Z,13.03
2023-05-16T04:29:52.436Z,7.88
2023-05-16T04:30:26.643Z,9.65
2023-05-16T04:30:54.185Z,10.46
2023-05-16T04:31:25.495Z,11.10
2023-05-16T04:31:57.873Z,14.32
2023-05-16T04:32:27.394Z,13.03
2023-05-16T04:32:58.194Z,11.10
2023-05-16T04:33:29.032Z,13.67
2023-05-16T04:33:59.951Z,9.01
2023-05-16T04:34:31.160Z,9.65
2023-05-16T04:35:02.186Z,11.90
2023-05-16T04:35:33.697Z,11.10
2023-05-16T04:36:05.133Z,11.10
2023-05-16T04:36:35.127Z,10.46
2023-05-16T04:37:07.185Z,9.33
2023-05-16T04:37:37.126Z,13.67
2023-05-16T04:38:08.290Z,11.58
2023-05-16T04:38:38.972Z,12.23
2023-05-16T04:39:10.192Z,12.55
2023-05-16T04:39:41.379Z,15.45
2023-05-16T04:40:12.754Z,12.23
2023-05-16T04:40:42.890Z,11.58
2023-05-16T04:41:14.191Z,11.90
2023-05-16T04:41:45.336Z,8.69
2023-05-16T04:42:17.211Z,11.10
2023-05-16T04:42:47.137Z,9.65
2023-05-16T04:43:18.038Z,8.69
2023-05-16T04:43:49.396Z,7.56
2023-05-16T04:44:20.176Z,10.13
2023-05-16T04:44:51.075Z,14.00
2023-05-16T04:45:25.402Z,7.56
2023-05-16T04:45:53.406Z,9.01
2023-05-16T04:46:24.434Z,12.23
2023-05-16T04:46:55.173Z,11.90
2023-05-16T04:47:26.936Z,7.56
2023-05-16T04:47:57.147Z,9.01
2023-05-16T04:48:28.418Z,11.58
2023-05-16T04:48:59.545Z,9.33
2023-05-16T04:49:30.408Z,10.78
2023-05-16T04:50:01.037Z,8.69
2023-05-16T04:50:32.226Z,9.33
2023-05-16T04:51:03.105Z,6.43
2023-05-16T04:51:34.344Z,14.32
2023-05-16T04:52:04.993Z,10.46
2023-05-16T04:52:37.308Z,13.03
2023-05-16T04:53:07.520Z,9.01
2023-05-16T04:53:38.330Z,7.88
2023-05-16T04:54:09.411Z,10.78
2023-05-16T04:54:40.192Z,9.65
2023-05-16T04:55:11.576Z,10.13
2023-05-16T04:55:42.012Z,8.20
2023-05-16T04:56:13.619Z,11.90
2023-05-16T04:56:44.465Z,7.56
2023-05-16T04:57:15.535Z,7.88
2023-05-16T04:57:47.413Z,11.90
2023-05-16T04:58:16.858Z,10.13
2023-05-16T04:58:48.262Z,5.47
2023-05-16T04:59:19.334Z,7.56
2023-05-16T04:59:50.184Z,9.01
2023-05-16T05:00:24.783Z,5.47
2023-05-16T05:00:52.217Z,7.24
2023-05-16T05:01:23.102Z,6.11
2023-05-16T05:01:54.300Z,7.88
2023-05-16T05:02:25.337Z,7.88
2023-05-16T05:02:57.306Z,10.78
2023-05-16T05:03:27.289Z,9.65
2023-05-16T05:03:58.463Z,11.90
2023-05-16T05:04:29.057Z,8.69
2023-05-16T05:05:00.407Z,6.43
2023-05-16T05:05:31.391Z,8.69
2023-05-16T05:06:02.130Z,10.46
2023-05-16T05:06:33.287Z,13.03
2023-05-16T05:07:04.428Z,9.65
2023-05-16T05:07:35.202Z,8.20
2023-05-16T05:08:07.020Z,4.34
2023-05-16T05:08:37.324Z,2.89
2023-05-16T05:09:08.774Z,12.55
2023-05-16T05:09:39.297Z,11.90
2023-05-16T05:10:10.224Z,13.67
2023-05-16T05:10:41.048Z,10.13
2023-05-16T05:11:12.197Z,12.23
2023-05-16T05:11:43.308Z,11.90
2023-05-16T05:12:14.253Z,7.24
2023-05-16T05:12:45.453Z,7.88
2023-05-16T05:13:17.347Z,13.03
2023-05-16T05:13:46.916Z,9.33
2023-05-16T05:14:18.281Z,9.33
2023-05-16T05:14:49.250Z,14.80
2023-05-16T05:15:22.894Z,11.58
2023-05-16T05:15:51.269Z,14.32
2023-05-16T05:16:22.692Z,11.90
2023-05-16T05:16:53.651Z,8.69
2023-05-16T05:17:24.464Z,7.56
2023-05-16T05:17:55.420Z,7.24
2023-05-16T05:18:27.445Z,12.23
2023-05-16T05:18:57.535Z,9.65
2023-05-16T05:19:28.645Z,11.10
2023-05-16T05:20:02.480Z,11.10
2023-05-16T05:20:30.387Z,10.13
2023-05-16T05:21:01.058Z,7.56
2023-05-16T05:21:32.519Z,9.65
2023-05-16T05:22:03.855Z,10.46
2023-05-16T05:22:34.053Z,9.01
2023-05-16T05:23:05.726Z,7.56
2023-05-16T05:23:37.674Z,8.69
2023-05-16T05:24:07.591Z,13.35
2023-05-16T05:24:38.571Z,11.10
2023-05-16T05:25:09.432Z,11.10
2023-05-16T05:25:40.411Z,8.69
2023-05-16T05:26:11.309Z,9.33
2023-05-16T05:26:42.488Z,14.32
2023-05-16T05:27:13.451Z,12.23
2023-05-16T05:27:44.448Z,10.46
2023-05-16T05:28:15.281Z,9.33
2023-05-16T05:28:53.857Z,8.20
2023-05-16T05:29:17.178Z,6.43
2023-05-16T05:29:48.252Z,11.10
2023-05-16T05:30:22.347Z,12.23
2023-05-16T05:30:51.076Z,12.23
2023-05-16T05:31:21.645Z,11.10
2023-05-16T05:31:52.373Z,14.80
2023-05-16T05:32:23.015Z,11.90
2023-05-16T05:32:54.285Z,6.92
2023-05-16T05:33:25.195Z,9.65
2023-05-16T05:33:56.981Z,9.33
2023-05-16T05:34:26.976Z,9.33
2023-05-16T05:34:58.088Z,13.35
2023-05-16T05:35:29.676Z,12.55
2023-05-16T05:36:01.491Z,9.33
2023-05-16T05:36:31.235Z,11.10
2023-05-16T05:37:02.633Z,14.32
2023-05-16T05:37:33.321Z,9.65
2023-05-16T05:38:03.978Z,8.20
2023-05-16T05:38:34.987Z,9.01
2023-05-16T05:39:07.429Z,13.03
2023-05-16T05:39:37.562Z,16.25
2023-05-16T05:40:08.384Z,15.45
2023-05-16T05:40:39.145Z,14.00
2023-05-16T05:41:09.912Z,11.90
2023-05-16T05:41:41.363Z,12.23
2023-05-16T05:42:12.045Z,10.78
2023-05-16T05:42:46.159Z,11.10
2023-05-16T05:43:14.253Z,15.12
2023-05-16T05:43:45.623Z,11.90
2023-05-16T05:44:17.351Z,16.89
2023-05-16T05:44:47.588Z,14.32
2023-05-16T05:45:21.459Z,13.67
2023-05-16T05:45:49.505Z,12.23
2023-05-16T05:46:20.482Z,12.23
2023-05-16T05:46:51.098Z,12.23
2023-05-16T05:47:22.322Z,12.23
2023-05-16T05:47:53.120Z,9.33
2023-05-16T05:48:24.287Z,10.46
2023-05-16T05:48:55.421Z,13.67
2023-05-16T05:49:27.478Z,10.13
2023-05-16T05:49:57.141Z,10.46
2023-05-16T05:50:28.172Z,9.01
2023-05-16T05:50:59.178Z,11.90
2023-05-16T05:51:30.288Z,12.55
2023-05-16T05:52:01.224Z,15.77
2023-05-16T05:52:32.146Z,13.03
2023-05-16T05:53:03.047Z,13.67
2023-05-16T05:53:34.479Z,11.58
2023-05-16T05:54:05.114Z,8.69
2023-05-16T05:54:37.305Z,9.65
2023-05-16T05:55:07.376Z,11.58
2023-05-16T05:55:38.583Z,10.46
2023-05-16T05:56:09.232Z,13.03
2023-05-16T05:56:40.292Z,16.25
2023-05-16T05:57:11.306Z,13.03
2023-05-16T05:57:42.428Z,11.10
2023-05-16T05:58:13.246Z,10.46
2023-05-16T05:58:44.705Z,10.13
2023-05-16T05:59:15.210Z,13.67
2023-05-16T05:59:47.003Z,11.10
2023-05-16T06:00:20.110Z,12.23
2023-05-16T06:00:48.589Z,10.13
2023-05-16T06:01:19.287Z,9.65
2023-05-16T06:01:49.982Z,11.58
2023-05-16T06:02:21.478Z,10.46
2023-05-16T06:02:52.555Z,11.90
2023-05-16T06:03:23.769Z,13.67
2023-05-16T06:03:54.808Z,13.67
2023-05-16T06:04:25.709Z,16.25
2023-05-16T06:04:57.654Z,14.32
2023-05-16T06:05:28.535Z,11.90
2023-05-16T06:05:58.369Z,11.90
2023-05-16T06:06:29.081Z,8.69
2023-05-16T06:07:00.062Z,8.20
2023-05-16T06:07:31.302Z,10.13
2023-05-16T06:08:02.269Z,14.32
2023-05-16T06:08:33.285Z,14.32
2023-05-16T06:09:04.331Z,13.67
2023-05-16T06:09:35.562Z,13.67
2023-05-16T06:10:07.938Z,15.45
2023-05-16T06:10:37.374Z,13.03
2023-05-16T06:11:08.298Z,12.23
2023-05-16T06:11:39.571Z,13.67
2023-05-16T06:12:10.502Z,18.02
2023-05-16T06:12:41.187Z,14.80
2023-05-16T06:13:12.328Z,14.80
2023-05-16T06:13:44.094Z,15.77
2023-05-16T06:14:14.530Z,15.45
2023-05-16T06:14:45.220Z,12.55
2023-05-16T06:15:20.152Z,13.35
2023-05-16T06:15:47.345Z,13.35
2023-05-16T06:16:18.001Z,14.80
2023-05-16T06:16:49.690Z,13.35
2023-05-16T06:17:21.018Z,13.67
2023-05-16T06:17:51.643Z,10.13
2023-05-16T06:18:22.359Z,10.78
2023-05-16T06:18:53.296Z,11.90
2023-05-16T06:19:24.076Z,11.10
2023-05-16T06:19:55.122Z,11.90
2023-05-16T06:20:27.057Z,9.33
2023-05-16T06:20:57.854Z,13.35
2023-05-16T06:21:27.907Z,13.67
2023-05-16T06:21:58.980Z,11.90
2023-05-16T06:22:30.222Z,10.78
2023-05-16T06:23:01.203Z,13.35
2023-05-16T06:23:32.928Z,14.32
2023-05-16T06:24:04.503Z,10.78
2023-05-16T06:24:34.568Z,7.88
2023-05-16T06:25:05.632Z,11.10
2023-05-16T06:25:37.146Z,13.67
2023-05-16T06:26:07.676Z,14.80
2023-05-16T06:26:38.377Z,11.90
2023-05-16T06:27:09.393Z,11.58
2023-05-16T06:27:40.076Z,13.67
2023-05-16T06:28:10.980Z,16.57
2023-05-16T06:28:42.305Z,11.10
2023-05-16T06:29:13.053Z,9.33
2023-05-16T06:29:44.056Z,10.46
2023-05-16T06:30:18.961Z,11.90
2023-05-16T06:30:46.853Z,14.00
2023-05-16T06:31:16.816Z,13.35
2023-05-16T06:31:48.264Z,12.23
2023-05-16T06:32:19.193Z,10.46
2023-05-16T06:32:50.449Z,8.69
2023-05-16T06:33:21.461Z,10.46
2023-05-16T06:33:53.212Z,10.78
2023-05-16T06:34:23.735Z,13.03
2023-05-16T06:34:54.606Z,9.65
2023-05-16T06:35:27.501Z,10.46
2023-05-16T06:35:59.477Z,6.43
2023-05-16T06:36:27.629Z,7.24
2023-05-16T06:36:58.591Z,11.10
2023-05-16T06:37:29.199Z,11.90
2023-05-16T06:38:00.682Z,8.69
2023-05-16T06:38:31.585Z,10.46
2023-05-16T06:39:03.508Z,8.69
2023-05-16T06:39:33.732Z,9.33
2023-05-16T06:40:04.543Z,9.33
2023-05-16T06:40:35.598Z,9.33
2023-05-16T06:41:07.325Z,6.11
2023-05-16T06:41:37.752Z,9.01
2023-05-16T06:42:08.582Z,7.88
2023-05-16T06:42:39.463Z,6.43
2023-05-16T06:43:10.627Z,6.92
2023-05-16T06:43:41.425Z,7.24
2023-05-16T06:44:12.175Z,8.69
2023-05-16T06:44:43.014Z,7.24
2023-05-16T06:45:17.043Z,10.13
2023-05-16T06:45:45.621Z,7.24
2023-05-16T06:46:17.411Z,7.56
2023-05-16T06:46:48.245Z,9.65
2023-05-16T06:47:18.312Z,8.69
2023-05-16T06:47:49.685Z,10.46
2023-05-16T06:48:20.337Z,9.33
2023-05-16T06:48:51.089Z,9.33
2023-05-16T06:49:23.682Z,9.33
2023-05-16T06:49:53.479Z,13.03
2023-05-16T06:50:24.094Z,13.67
2023-05-16T06:50:55.562Z,11.10
2023-05-16T06:51:27.746Z,11.10
2023-05-16T06:51:57.729Z,10.78
2023-05-16T06:52:28.153Z,10.78
2023-05-16T06:52:59.212Z,11.90
2023-05-16T06:53:30.161Z,12.55
2023-05-16T06:54:03.995Z,9.65
2023-05-16T06:54:32.845Z,7.88
2023-05-16T06:55:04.132Z,7.56
2023-05-16T06:55:34.972Z,10.46
2023-05-16T06:56:05.595Z,8.69
2023-05-16T06:56:37.374Z,11.90
2023-05-16T06:57:07.565Z,10.46
2023-05-16T06:57:38.842Z,11.10
2023-05-16T06:58:09.927Z,6.43
2023-05-16T06:58:40.953Z,11.10
2023-05-16T06:59:11.635Z,8.20
2023-05-16T06:59:42.841Z,5.47
2023-05-16T07:00:16.905Z,8.69
2023-05-16T07:00:45.110Z,11.90
2023-05-16T07:01:15.788Z,7.88
2023-05-16T07:01:48.112Z,6.11
2023-05-16T07:02:17.719Z,7.24
2023-05-16T07:02:48.750Z,7.56
2023-05-16T07:03:19.900Z,10.46
2023-05-16T07:03:50.750Z,11.10
2023-05-16T07:04:21.298Z,10.46
2023-05-16T07:04:52.484Z,11.58
2023-05-16T07:05:24.315Z,9.01
2023-05-16T07:05:54.678Z,11.10
2023-05-16T07:06:25.801Z,10.46
2023-05-16T07:06:57.984Z,10.13
2023-05-16T07:07:27.983Z,9.65
2023-05-16T07:07:58.608Z,10.46
2023-05-16T07:08:29.289Z,9.65